Time;durP1;ratioP1;P1;durP2;ratioP2;P2;SDS_P1;SDS_P2;PMS_P1;PMS_P2;Temp;Humidity;BMP_temperature;BMP_pressure;BME280_temperature;BME280_humidity;BME280_pressure;Samples;Min_cycle;Max_cycle;Signal;HPM_P1;HPM_P2
2021/10/19 00:00:35;;;;;;;27.87;14.07;;;;;;;9.69;76.43;101581.94;1754083;80;25564;-65
2021/10/19 00:03:01;;;;;;;23.67;12.80;;;;;;;9.66;76.47;101585.15;1752535;80;26410;-65
2021/10/19 00:05:28;;;;;;;28.60;12.37;;;;;;;9.65;76.50;101579.37;1748013;80;25824;-63
2021/10/19 00:07:54;;;;;;;26.02;13.30;;;;;;;9.65;76.52;101581.59;1757826;79;29535;-62
2021/10/19 00:10:21;;;;;;;25.37;12.30;;;;;;;9.65;76.56;101584.73;1760362;80;25738;-65
2021/10/19 00:12:47;;;;;;;26.75;13.48;;;;;;;9.63;76.60;101572.72;1749077;80;25778;-65
2021/10/19 00:15:15;;;;;;;23.67;12.93;;;;;;;9.64;76.61;101585.64;1752157;80;25776;-65
2021/10/19 00:17:43;;;;;;;24.02;12.45;;;;;;;9.63;76.65;101585.22;1751784;80;25834;-65
2021/10/19 00:20:12;;;;;;;32.93;13.78;;;;;;;9.63;76.64;101587.91;1753170;79;27395;-65
2021/10/19 00:22:39;;;;;;;27.45;13.43;;;;;;;9.62;76.65;101583.47;1767723;79;25820;-65
2021/10/19 00:25:07;;;;;;;25.35;12.90;;;;;;;9.60;76.68;101583.50;1757311;79;26163;-65
2021/10/19 00:27:34;;;;;;;24.52;13.30;;;;;;;9.58;76.68;101578.64;1757793;79;25869;-65
2021/10/19 00:30:02;;;;;;;24.37;12.40;;;;;;;9.58;76.70;101577.77;1757110;78;25819;-65
2021/10/19 00:32:29;;;;;;;30.97;13.53;;;;;;;9.56;76.75;101573.78;1761764;79;27485;-65
2021/10/19 00:34:56;;;;;;;25.68;12.98;;;;;;;9.55;76.74;101573.83;1757263;79;26192;-65
2021/10/19 00:37:22;;;;;;;28.17;12.90;;;;;;;9.51;76.74;101573.48;1756550;79;25771;-65
2021/10/19 00:39:48;;;;;;;29.23;12.60;;;;;;;9.47;76.76;101564.64;1769657;79;25921;-65
2021/10/19 00:42:13;;;;;;;23.35;13.28;;;;;;;9.46;76.81;101560.20;1756722;79;26479;-65
2021/10/19 00:44:39;;;;;;;26.87;12.85;;;;;;;9.43;76.86;101547.78;1761661;79;27437;-65
2021/10/19 00:47:05;;;;;;;28.77;13.90;;;;;;;9.44;76.88;101547.33;1771305;79;25743;-65
2021/10/19 00:49:31;;;;;;;31.55;13.75;;;;;;;9.42;76.90;101554.05;1756861;79;26371;-65
2021/10/19 00:51:58;;;;;;;28.57;13.48;;;;;;;9.43;76.92;101553.59;1767465;79;25788;-65
2021/10/19 00:54:25;;;;;;;21.48;12.47;;;;;;;9.42;76.94;101551.38;1771773;79;25849;-65
2021/10/19 00:56:53;;;;;;;24.20;13.22;;;;;;;9.42;76.94;101556.73;1753038;80;27436;-63
2021/10/19 00:59:21;;;;;;;26.57;13.25;;;;;;;9.41;76.94;101552.29;1767277;80;27224;-63
2021/10/19 01:01:48;;;;;;;27.93;14.45;;;;;;;9.41;76.98;101548.73;1738103;80;26302;-63
2021/10/19 01:04:14;;;;;;;29.37;13.72;;;;;;;9.39;76.96;101534.52;1742267;80;25802;-63
2021/10/19 01:06:41;;;;;;;25.45;13.78;;;;;;;9.39;77.01;101533.17;1742397;80;25492;-63
2021/10/19 01:09:09;;;;;;;35.45;14.00;;;;;;;9.39;77.03;101534.05;1768545;79;29494;-63
2021/10/19 01:11:35;;;;;;;31.23;14.63;;;;;;;9.38;77.06;101526.95;1759821;79;27218;-63
2021/10/19 01:14:02;;;;;;;35.73;15.83;;;;;;;9.39;77.08;101527.36;1759943;79;26455;-63
2021/10/19 01:16:28;;;;;;;34.13;16.35;;;;;;;9.39;77.10;101527.36;1765657;79;25779;-64
2021/10/19 01:18:54;;;;;;;34.35;17.05;;;;;;;9.40;77.12;101533.59;1743521;80;25938;-64
2021/10/19 01:21:19;;;;;;;27.90;15.28;;;;;;;9.40;77.15;101534.48;1758725;79;27363;-64
2021/10/19 01:23:46;;;;;;;30.82;15.68;;;;;;;9.39;77.15;101531.38;1762313;80;25736;-64
2021/10/19 01:26:12;;;;;;;31.35;14.70;;;;;;;9.37;77.15;101531.00;1757467;79;25680;-64
2021/10/19 01:28:42;;;;;;;27.90;15.25;;;;;;;9.34;77.17;101537.30;1771178;79;25877;-63
2021/10/19 01:31:11;;;;;;;31.42;16.32;;;;;;;9.33;77.18;101534.66;1770230;79;25749;-64
2021/10/19 01:33:39;;;;;;;29.12;15.25;;;;;;;9.32;77.26;101528.43;1757837;79;28094;-63
2021/10/19 01:36:07;;;;;;;29.75;16.05;;;;;;;9.32;77.28;101524.87;1755728;79;25744;-63
2021/10/19 01:38:34;;;;;;;30.08;15.32;;;;;;;9.31;77.29;101524.45;1757513;79;25722;-63
2021/10/19 01:41:02;;;;;;;34.10;16.35;;;;;;;9.28;77.29;101517.38;1755327;79;25765;-64
2021/10/19 01:43:29;;;;;;;29.25;15.15;;;;;;;9.28;77.34;101520.05;1766431;80;25888;-63
2021/10/19 01:46:00;;;;;;;33.98;14.40;;;;;;;9.25;77.34;101508.09;1764160;79;27409;-64
2021/10/19 01:48:28;;;;;;;26.80;14.28;;;;;;;9.25;77.34;101514.78;1757936;79;25745;-64
2021/10/19 01:50:55;;;;;;;31.95;14.95;;;;;;;9.22;77.37;101514.86;1767261;79;25771;-63
2021/10/19 01:53:22;;;;;;;30.15;15.25;;;;;;;9.22;77.35;101507.28;1758161;79;25777;-64
2021/10/19 01:55:49;;;;;;;29.98;16.07;;;;;;;9.16;77.34;101506.97;1760791;79;27860;-64
2021/10/19 01:58:21;;;;;;;27.35;15.43;;;;;;;9.13;77.41;101510.17;1757579;79;27472;-64
2021/10/19 02:00:43;;;;;;;30.62;15.95;;;;;;;9.12;77.46;101510.64;1755922;81;25798;-63
2021/10/19 02:03:10;;;;;;;29.23;15.88;;;;;;;9.11;77.53;101504.87;1752976;79;25785;-63
2021/10/19 02:05:36;;;;;;;28.77;15.10;;;;;;;9.10;77.53;101501.77;1762208;79;25722;-63
2021/10/19 02:08:04;;;;;;;33.50;15.58;;;;;;;9.10;77.54;101505.78;1750345;79;25765;-64
2021/10/19 02:10:35;;;;;;;32.13;16.52;;;;;;;9.07;77.53;101508.53;1728997;81;27472;-64
2021/10/19 02:13:05;;;;;;;29.42;15.05;;;;;;;9.07;77.62;101501.84;1732365;81;25830;-66
2021/10/19 02:15:32;;;;;;;32.55;15.32;;;;;;;9.04;77.59;101505.47;1731468;81;34888;-63
2021/10/19 02:18:00;;;;;;;31.68;17.77;;;;;;;9.04;77.62;101508.59;1740274;81;26351;-64
2021/10/19 02:20:26;;;;;;;29.90;15.70;;;;;;;9.04;77.68;101505.92;1727367;81;25788;-64
2021/10/19 02:22:53;;;;;;;33.13;14.93;;;;;;;9.03;77.69;101497.02;1732626;81;27431;-63
2021/10/19 02:25:20;;;;;;;30.70;14.65;;;;;;;9.01;77.65;101496.18;1732220;81;25806;-63
2021/10/19 02:27:47;;;;;;;32.85;15.98;;;;;;;8.99;77.68;101491.33;1732228;81;26212;-64
2021/10/19 02:30:14;;;;;;;31.82;16.05;;;;;;;8.97;77.75;101494.49;1709848;82;26899;-64
2021/10/19 02:32:43;;;;;;;38.30;15.60;;;;;;;8.96;77.78;101503.43;1732662;81;25763;-64
2021/10/19 02:35:11;;;;;;;30.60;15.80;;;;;;;8.94;77.76;101505.26;1732749;81;28187;-64
2021/10/19 02:37:39;;;;;;;28.65;14.90;;;;;;;8.90;77.78;101502.23;1740471;81;26617;-64
2021/10/19 02:40:07;;;;;;;30.00;15.48;;;;;;;8.89;77.80;101503.15;1700052;82;25853;-63
2021/10/19 02:42:32;;;;;;;33.48;16.65;;;;;;;8.84;77.81;101504.16;1719175;81;26660;-64
2021/10/19 02:45:02;;;;;;;25.80;14.83;;;;;;;8.80;77.87;101492.66;1722200;81;26250;-64
2021/10/19 02:47:29;;;;;;;38.85;16.07;;;;;;;8.78;77.94;101498.04;1724549;81;27401;-64
2021/10/19 02:49:55;;;;;;;29.50;14.43;;;;;;;8.78;77.99;101499.38;1724416;81;26187;-64
2021/10/19 02:52:20;;;;;;;32.48;16.27;;;;;;;8.78;77.98;101507.39;1714220;81;25817;-64
2021/10/19 02:54:49;;;;;;;25.27;14.90;;;;;;;8.76;77.99;101504.33;1721438;81;26450;-64
2021/10/19 02:57:15;;;;;;;29.57;15.13;;;;;;;8.73;78.01;101503.06;1727074;81;25773;-64
2021/10/19 02:59:41;;;;;;;27.87;15.90;;;;;;;8.73;78.10;101511.97;1717661;81;27322;-64
2021/10/19 03:02:07;;;;;;;28.42;15.23;;;;;;;8.72;78.11;101512.00;1713112;81;25752;-64
2021/10/19 03:04:32;;;;;;;28.02;14.20;;;;;;;8.71;78.11;101513.79;1724543;81;25842;-64
2021/10/19 03:06:58;;;;;;;28.95;15.28;;;;;;;8.68;78.16;101520.54;1723140;81;26482;-63
2021/10/19 03:09:24;;;;;;;29.25;15.28;;;;;;;8.66;78.17;101511.67;1737535;81;26464;-63
2021/10/19 03:11:50;;;;;;;31.37;15.75;;;;;;;8.62;78.16;101509.98;1740493;81;28064;-64
2021/10/19 03:14:16;;;;;;;33.95;16.10;;;;;;;8.60;78.22;101505.58;1731889;81;25923;-64
2021/10/19 03:16:43;;;;;;;31.48;16.73;;;;;;;8.58;78.30;101499.39;1743250;81;37059;-63
2021/10/19 03:19:10;;;;;;;32.45;17.65;;;;;;;8.55;78.28;101503.00;1734599;81;26460;-63
2021/10/19 03:21:36;;;;;;;31.33;17.25;;;;;;;8.53;78.32;101494.14;1739062;82;26522;-64
2021/10/19 03:24:05;;;;;;;30.57;15.45;;;;;;;8.48;78.29;101498.70;1739095;81;28349;-63
2021/10/19 03:26:32;;;;;;;31.37;16.17;;;;;;;8.46;78.36;101503.20;1750433;80;25753;-64
2021/10/19 03:28:58;;;;;;;30.00;16.97;;;;;;;8.43;78.41;101505.94;1715487;82;25657;-64
2021/10/19 03:31:24;;;;;;;30.82;15.85;;;;;;;8.41;78.46;101499.74;1718051;83;25710;-64
2021/10/19 03:33:50;;;;;;;28.30;16.57;;;;;;;8.40;78.47;101496.19;1739043;81;25730;-64
2021/10/19 03:36:15;;;;;;;32.88;17.23;;;;;;;8.37;78.51;101486.91;1734222;81;28140;-64
2021/10/19 03:38:42;;;;;;;38.80;17.73;;;;;;;8.36;78.53;101493.62;1738669;82;26543;-64
2021/10/19 03:41:09;;;;;;;30.85;15.65;;;;;;;8.34;78.55;101496.32;1727578;82;25835;-64
2021/10/19 03:43:35;;;;;;;31.17;15.78;;;;;;;8.31;78.52;101493.67;1736311;81;26342;-64
2021/10/19 03:46:00;;;;;;;37.23;17.73;;;;;;;8.30;78.55;101493.70;1735126;81;25762;-64
2021/10/19 03:48:27;;;;;;;30.35;16.77;;;;;;;8.30;78.63;101497.72;1735356;82;27421;-64
2021/10/19 03:50:53;;;;;;;31.40;16.93;;;;;;;8.29;78.69;101505.30;1737503;82;27228;-64
2021/10/19 03:53:20;;;;;;;32.80;16.02;;;;;;;8.29;78.69;101506.19;1736928;82;26420;-64
2021/10/19 03:55:48;;;;;;;34.85;16.37;;;;;;;8.29;78.73;101510.19;1740566;81;25766;-64
2021/10/19 03:58:14;;;;;;;31.45;17.02;;;;;;;8.29;78.77;101509.31;1752533;80;26586;-64
2021/10/19 04:00:40;;;;;;;38.60;16.62;;;;;;;8.30;78.83;101507.95;1750733;80;28157;-64
2021/10/19 04:03:06;;;;;;;33.98;17.57;;;;;;;8.30;78.85;101499.05;1753576;80;25911;-64
2021/10/19 04:05:32;;;;;;;35.17;17.77;;;;;;;8.31;78.86;101501.69;1758301;80;26112;-64
2021/10/19 04:07:58;;;;;;;34.75;16.50;;;;;;;8.31;78.91;101496.34;1714239;81;26657;-64
2021/10/19 04:10:24;;;;;;;35.08;16.90;;;;;;;8.32;78.92;101495.44;1727792;82;26008;-64
2021/10/19 04:12:49;;;;;;;29.92;16.95;;;;;;;8.32;78.94;101494.10;1739364;82;27400;-64
2021/10/19 04:15:15;;;;;;;28.65;17.23;;;;;;;8.33;78.97;101501.69;1730939;81;25854;-64
2021/10/19 04:17:41;;;;;;;34.75;17.07;;;;;;;8.32;78.94;101494.10;1741803;81;25774;-64
2021/10/19 04:20:10;;;;;;;32.50;16.07;;;;;;;8.32;78.99;101483.42;1738714;82;25873;-64
2021/10/19 04:22:37;;;;;;;29.77;16.75;;;;;;;8.32;79.03;101475.86;1739761;82;25754;-64
2021/10/19 04:25:03;;;;;;;37.05;18.45;;;;;;;8.32;79.08;101480.75;1739193;81;27405;-65
2021/10/19 04:27:29;;;;;;;31.70;17.42;;;;;;;8.35;79.16;101487.39;1702533;83;25420;-64
2021/10/19 04:29:55;;;;;;;30.12;17.12;;;;;;;8.36;79.15;101489.61;1708838;83;25703;-64
2021/10/19 04:32:21;;;;;;;32.93;17.60;;;;;;;8.37;79.20;101480.69;1728404;82;25769;-64
2021/10/19 04:34:47;;;;;;;32.65;17.23;;;;;;;8.39;79.21;101486.88;1737960;81;25941;-64
2021/10/19 04:37:13;;;;;;;32.55;16.65;;;;;;;8.39;79.26;101485.55;1739518;81;27465;-63
2021/10/19 04:39:39;;;;;;;27.55;16.07;;;;;;;8.37;79.25;101481.56;1738458;81;26751;-63
2021/10/19 04:42:05;;;;;;;31.42;15.93;;;;;;;8.37;79.25;101474.89;1739082;81;25671;-63
2021/10/19 04:44:31;;;;;;;31.68;16.60;;;;;;;8.35;79.19;101467.36;1738777;81;25901;-65
2021/10/19 04:46:57;;;;;;;34.67;16.77;;;;;;;8.32;79.21;101473.19;1760095;80;25675;-64
2021/10/19 04:49:23;;;;;;;31.25;16.52;;;;;;;8.30;79.22;101468.34;1718985;82;27353;-64
2021/10/19 04:51:50;;;;;;;29.85;16.93;;;;;;;8.28;79.32;101471.03;1735273;81;26641;-64
2021/10/19 04:54:16;;;;;;;35.00;17.70;;;;;;;8.27;79.31;101465.73;1738872;81;25905;-63
2021/10/19 04:56:42;;;;;;;37.00;18.00;;;;;;;8.25;79.35;101467.09;1738911;81;27865;-63
2021/10/19 04:59:08;;;;;;;36.60;19.70;;;;;;;8.23;79.33;101463.58;1741739;81;25900;-64
2021/10/19 05:01:34;;;;;;;33.73;16.90;;;;;;;8.23;79.35;101458.69;1739524;82;29468;-64
2021/10/19 05:04:00;;;;;;;30.15;16.02;;;;;;;8.18;79.35;101462.80;1733397;81;25746;-63
2021/10/19 05:06:26;;;;;;;31.00;16.05;;;;;;;8.15;79.37;101457.05;1729568;82;25761;-63
2021/10/19 05:08:52;;;;;;;29.70;16.02;;;;;;;8.15;79.43;101457.52;1722668;81;26320;-64
2021/10/19 05:11:17;;;;;;;32.42;16.10;;;;;;;8.15;79.49;101462.85;1718801;81;25759;-64
2021/10/19 05:13:45;;;;;;;30.88;16.25;;;;;;;8.15;79.48;101466.86;1700868;82;27518;-63
2021/10/19 05:16:12;;;;;;;33.33;16.93;;;;;;;8.13;79.46;101464.67;1720903;81;25852;-64
2021/10/19 05:18:38;;;;;;;33.92;18.20;;;;;;;8.12;79.57;101464.25;1718945;81;25856;-64
2021/10/19 05:21:05;;;;;;;34.05;17.37;;;;;;;8.12;79.58;101469.13;1730007;81;26731;-63
2021/10/19 05:23:32;;;;;;;35.17;17.17;;;;;;;8.13;79.60;101468.22;1699015;82;25683;-63
2021/10/19 05:25:59;;;;;;;34.50;17.92;;;;;;;8.14;79.65;101469.11;1726827;81;27550;-63
2021/10/19 05:28:25;;;;;;;32.13;17.42;;;;;;;8.14;79.63;101465.98;1720854;81;25683;-64
2021/10/19 05:30:52;;;;;;;35.13;16.93;;;;;;;8.15;79.69;101468.20;1721494;81;26455;-64
2021/10/19 05:33:17;;;;;;;35.38;17.52;;;;;;;8.19;79.71;101466.34;1698535;82;26594;-63
2021/10/19 05:35:43;;;;;;;29.52;15.43;;;;;;;8.20;79.72;101460.97;1715155;81;26194;-64
2021/10/19 05:38:10;;;;;;;32.80;16.82;;;;;;;8.22;79.66;101463.61;1689635;83;27496;-64
2021/10/19 05:40:36;;;;;;;32.30;17.10;;;;;;;8.21;79.71;101458.72;1723639;81;25817;-64
2021/10/19 05:43:01;;;;;;;29.32;15.85;;;;;;;8.22;79.71;101453.80;1724451;81;26429;-64
2021/10/19 05:45:27;;;;;;;36.25;17.48;;;;;;;8.24;79.71;101448.43;1698294;83;25764;-64
2021/10/19 05:47:53;;;;;;;32.90;17.32;;;;;;;8.24;79.75;101447.09;1720932;81;25715;-64
2021/10/19 05:50:19;;;;;;;36.30;16.97;;;;;;;8.25;79.77;101448.86;1697724;83;28864;-64
2021/10/19 05:52:45;;;;;;;33.40;16.77;;;;;;;8.26;79.75;101447.94;1727343;81;26089;-64
2021/10/19 05:55:11;;;;;;;30.15;16.97;;;;;;;8.25;79.75;101454.20;1697090;82;25882;-66
2021/10/19 05:57:38;;;;;;;35.13;17.52;;;;;;;8.25;79.78;101452.86;1724262;81;25820;-63
2021/10/19 06:00:07;;;;;;;36.45;17.92;;;;;;;8.26;79.78;101454.63;1701022;82;26389;-64
2021/10/19 06:02:34;;;;;;;31.50;17.42;;;;;;;8.26;79.78;101455.95;1726054;81;28096;-66
2021/10/19 06:05:00;;;;;;;33.38;17.77;;;;;;;8.27;79.81;101457.72;1730685;81;25636;-64
2021/10/19 06:07:26;;;;;;;37.88;17.98;;;;;;;8.27;79.77;101457.72;1695894;82;25714;-65
2021/10/19 06:09:52;;;;;;;35.35;16.85;;;;;;;8.27;79.79;101453.25;1710552;81;25741;-64
2021/10/19 06:12:18;;;;;;;36.00;18.73;;;;;;;8.28;79.81;101456.80;1761214;79;25750;-64
2021/10/19 06:14:44;;;;;;;34.05;17.65;;;;;;;8.30;79.85;101454.98;1756970;79;28124;-64
2021/10/19 06:17:12;;;;;;;29.18;17.45;;;;;;;8.25;79.80;101447.52;1750497;79;26352;-64
2021/10/19 06:19:39;;;;;;;32.80;17.40;;;;;;;8.30;79.82;101453.19;1759728;79;25778;-64
2021/10/19 06:22:05;;;;;;;35.83;18.40;;;;;;;8.32;79.81;101466.52;1757471;79;25759;-65
2021/10/19 06:24:31;;;;;;;39.55;19.05;;;;;;;8.31;79.84;101464.30;1756001;79;25813;-63
2021/10/19 06:26:57;;;;;;;36.33;18.25;;;;;;;8.33;79.85;101468.30;1747318;79;27578;-68
2021/10/19 06:29:23;;;;;;;33.42;18.02;;;;;;;8.35;79.86;101467.36;1750880;79;25688;-64
2021/10/19 06:31:49;;;;;;;43.42;19.20;;;;;;;8.37;79.89;101473.55;1745277;79;26460;-68
2021/10/19 06:34:15;;;;;;;35.90;17.25;;;;;;;8.39;79.91;101471.73;1757331;79;25894;-66
2021/10/19 06:36:41;;;;;;;39.50;18.20;;;;;;;8.44;79.91;101477.85;1752827;79;25841;-66
2021/10/19 06:39:07;;;;;;;34.48;17.57;;;;;;;8.48;79.92;101484.47;1754066;79;27508;-63
2021/10/19 06:41:33;;;;;;;34.13;16.87;;;;;;;8.51;79.94;101478.60;1759673;79;25820;-66
2021/10/19 06:44:00;;;;;;;37.60;17.92;;;;;;;8.56;79.94;101475.38;1761210;79;25856;-66
2021/10/19 06:46:26;;;;;;;35.15;16.62;;;;;;;8.61;79.93;101473.48;1758316;79;25737;-63
2021/10/19 06:48:51;;;;;;;42.75;18.67;;;;;;;8.65;79.94;101479.64;1752921;79;25816;-66
2021/10/19 06:51:17;;;;;;;41.23;19.62;;;;;;;8.69;79.92;101476.86;1755667;79;27456;-69
2021/10/19 06:53:43;;;;;;;49.77;21.48;;;;;;;8.74;79.92;101472.30;1734138;81;25811;-66
2021/10/19 06:56:09;;;;;;;36.48;19.32;;;;;;;8.79;79.97;101463.71;1727226;81;25838;-64
2021/10/19 06:58:35;;;;;;;34.55;17.07;;;;;;;8.86;79.92;101447.53;1760311;79;26214;-67
2021/10/19 07:01:02;;;;;;;36.83;17.25;;;;;;;8.91;79.93;101446.97;1768083;79;25909;-66
2021/10/19 07:03:29;;;;;;;32.20;17.17;;;;;;;8.96;79.87;101449.07;1757558;79;27397;-67
2021/10/19 07:06:00;;;;;;;36.85;17.40;;;;;;;9.01;79.90;101448.05;1743106;79;25898;-64
2021/10/19 07:08:23;;;;;;;32.33;16.40;;;;;;;9.04;79.88;101452.44;1757372;79;25800;-64
2021/10/19 07:10:49;;;;;;;29.15;16.57;;;;;;;9.11;79.89;101460.73;1750700;79;27963;-64
2021/10/19 07:13:21;;;;;;;36.50;18.02;;;;;;;9.19;79.93;101456.54;1765812;79;26531;-64
2021/10/19 07:15:42;;;;;;;30.77;17.23;;;;;;;9.26;79.85;101459.02;1758373;79;27417;-65
2021/10/19 07:18:08;;;;;;;37.78;18.37;;;;;;;9.32;79.84;101457.99;1763925;79;27221;-65
2021/10/19 07:20:34;;;;;;;37.55;18.98;;;;;;;9.36;79.80;101459.22;1758723;79;25816;-66
2021/10/19 07:23:00;;;;;;;40.28;18.27;;;;;;;9.38;79.74;101456.50;1759423;79;25891;-67
2021/10/19 07:25:27;;;;;;;37.95;18.27;;;;;;;9.39;79.69;101455.13;1754969;79;25905;-65
2021/10/19 07:27:56;;;;;;;39.00;19.02;;;;;;;9.48;79.79;101457.14;1762961;79;28156;-64
2021/10/19 07:30:22;;;;;;;36.63;18.40;;;;;;;9.50;79.68;101453.51;1760156;79;26579;-65
2021/10/19 07:32:47;;;;;;;39.95;19.42;;;;;;;9.56;79.71;101447.12;1759831;79;26048;-66
2021/10/19 07:35:16;;;;;;;45.23;20.15;;;;;;;9.60;79.64;101444.78;1753220;79;25772;-68
2021/10/19 07:37:42;;;;;;;32.80;18.95;;;;;;;9.61;79.54;101437.17;1763010;79;25743;-68
2021/10/19 07:40:10;;;;;;;36.80;18.07;;;;;;;9.65;79.61;101441.52;1747375;80;27363;-67
2021/10/19 07:42:37;;;;;;;31.75;18.42;;;;;;;9.70;79.60;101447.63;1751260;80;26540;-66
2021/10/19 07:45:10;;;;;;;32.60;17.30;;;;;;;9.72;79.55;101441.31;1749505;80;25749;-68
2021/10/19 07:47:44;;;;;;;31.48;17.27;;;;;;;9.78;79.51;101436.25;1756662;79;25918;-67
2021/10/19 07:50:13;;;;;;;33.23;17.17;;;;;;;9.82;79.51;101437.05;1761962;79;26434;-65
2021/10/19 07:52:42;;;;;;;30.90;17.20;;;;;;;9.90;79.52;101439.05;1756964;79;27503;-66
2021/10/19 07:55:10;;;;;;;35.63;18.42;;;;;;;9.96;79.48;101439.76;1756422;80;25843;-68
2021/10/19 07:57:44;;;;;;;43.38;20.80;;;;;;;10.07;79.44;101440.80;1753426;79;25881;-65
2021/10/19 08:00:13;;;;;;;34.73;17.95;;;;;;;10.08;79.38;101431.38;1766499;79;27802;-66
2021/10/19 08:02:41;;;;;;;36.15;17.40;;;;;;;10.20;79.35;101435.99;1768772;79;25441;-66
2021/10/19 08:05:12;;;;;;;33.98;16.00;;;;;;;10.27;79.26;101435.77;1763156;79;27463;-67
2021/10/19 08:07:43;;;;;;;31.45;16.70;;;;;;;10.32;79.21;101433.83;1762807;79;25801;-66
2021/10/19 08:10:12;;;;;;;35.28;16.12;;;;;;;10.37;79.18;101433.70;1760721;79;25761;-67
2021/10/19 08:12:38;;;;;;;34.00;15.95;;;;;;;10.45;79.14;101434.31;1753071;80;26450;-67
2021/10/19 08:15:05;;;;;;;30.45;15.30;;;;;;;10.54;79.10;101435.38;1760014;81;25772;-67
2021/10/19 08:17:32;;;;;;;37.53;16.00;;;;;;;10.63;78.99;101437.77;1759130;80;28544;-67
2021/10/19 08:20:01;;;;;;;29.00;16.17;;;;;;;10.71;78.93;101431.70;1762474;80;26470;-66
2021/10/19 08:22:29;;;;;;;44.33;16.97;;;;;;;10.80;78.80;101426.98;1761081;80;25906;-66
2021/10/19 08:24:56;;;;;;;52.40;18.57;;;;;;;10.87;78.67;101426.73;1757414;79;26656;-65
2021/10/19 08:27:25;;;;;;;60.65;20.65;;;;;;;10.94;78.62;101415.34;1750846;80;25827;-64
2021/10/19 08:29:52;;;;;;;55.70;17.87;;;;;;;11.03;78.46;101408.34;1752464;80;29554;-65
2021/10/19 08:32:19;;;;;;;51.95;17.60;;;;;;;11.11;78.37;101407.63;1734272;82;26434;-68
2021/10/19 08:34:46;;;;;;;36.90;16.97;;;;;;;11.20;78.34;101405.97;1737335;81;25790;-64
2021/10/19 08:37:13;;;;;;;36.53;16.25;;;;;;;11.26;78.15;101413.81;1737919;82;25720;-66
2021/10/19 08:39:39;;;;;;;26.57;15.30;;;;;;;11.35;78.04;101408.59;1739278;81;25949;-64
2021/10/19 08:42:06;;;;;;;32.20;15.25;;;;;;;11.47;78.00;101405.95;1732509;82;27499;-64
2021/10/19 08:44:32;;;;;;;28.17;14.38;;;;;;;11.59;77.86;101405.06;1754286;80;26167;-64
2021/10/19 08:46:58;;;;;;;31.42;15.30;;;;;;;11.70;77.81;101396.63;1717244;83;26181;-64
2021/10/19 08:49:25;;;;;;;32.90;15.65;;;;;;;11.83;77.74;101395.74;1715143;82;26087;-64
2021/10/19 08:51:50;;;;;;;24.57;14.00;;;;;;;11.94;77.63;101390.39;1738599;81;26422;-63
2021/10/19 08:54:16;;;;;;;30.00;15.08;;;;;;;12.02;77.41;101395.01;1739735;81;28034;-63
2021/10/19 08:56:43;;;;;;;25.50;13.28;;;;;;;12.13;77.21;101393.73;1738350;82;26542;-63
2021/10/19 08:59:12;;;;;;;32.95;16.27;;;;;;;12.17;76.73;101394.90;1733565;82;26051;-64
2021/10/19 09:01:40;;;;;;;31.30;15.13;;;;;;;12.25;76.35;101395.48;1755144;80;26103;-63
2021/10/19 09:04:12;;;;;;;30.10;15.58;;;;;;;12.34;76.56;101388.88;1760313;80;25563;-63
2021/10/19 09:06:41;;;;;;;33.25;16.62;;;;;;;12.44;76.45;101376.83;1755179;80;27336;-63
2021/10/19 09:09:10;;;;;;;36.98;15.20;;;;;;;12.53;76.06;101381.84;1742155;81;25873;-65
2021/10/19 09:11:44;;;;;;;25.60;12.98;;;;;;;12.63;75.98;101377.84;1746968;80;26053;-62
2021/10/19 09:14:11;;;;;;;39.25;16.15;;;;;;;12.73;75.57;101372.09;1689495;83;25785;-65
2021/10/19 09:16:47;;;;;;;31.57;14.20;;;;;;;12.83;75.46;101374.82;1751450;80;25729;-65
2021/10/19 09:19:19;;;;;;;21.80;12.30;;;;;;;12.92;75.11;101382.52;1756820;80;27521;-64
2021/10/19 09:21:52;;;;;;;19.98;11.45;;;;;;;12.96;74.90;101377.41;1759666;79;25782;-64
2021/10/19 09:24:25;;;;;;;22.30;12.18;;;;;;;13.02;74.53;101382.50;1757023;79;26098;-65
2021/10/19 09:27:07;;;;;;;25.90;12.93;;;;;;;13.07;73.15;101373.77;1755211;79;25785;-65
2021/10/19 09:29:45;;;;;;;21.95;12.20;;;;;;;13.09;74.08;101378.62;1762750;79;25784;-64
2021/10/19 09:32:13;;;;;;;24.20;12.55;;;;;;;13.17;73.48;101371.59;1753820;79;29132;-67
2021/10/19 09:34:44;;;;;;;22.95;12.98;;;;;;;13.25;73.65;101373.49;1756831;79;26586;-66
2021/10/19 09:37:13;;;;;;;24.32;11.93;;;;;;;13.29;73.63;101363.00;1770724;79;26043;-63
2021/10/19 09:39:42;;;;;;;29.42;14.58;;;;;;;13.32;73.37;101366.44;1763122;79;25855;-66
2021/10/19 09:42:19;;;;;;;22.55;13.25;;;;;;;13.37;72.76;101363.55;1760226;79;25825;-66
2021/10/19 09:44:58;;;;;;;32.28;13.30;;;;;;;13.44;73.05;101369.06;1742591;79;27430;-66
2021/10/19 09:47:36;;;;;;;27.77;13.55;;;;;;;13.49;72.66;101363.01;1754811;79;26282;-66
2021/10/19 09:49:58;;;;;;;23.10;11.60;;;;;;;13.55;72.66;101366.78;1756500;79;26462;-66
2021/10/19 09:52:25;;;;;;;27.98;11.55;;;;;;;13.60;71.74;101359.84;1759689;79;25760;-66
2021/10/19 09:54:54;;;;;;;24.72;13.03;;;;;;;13.65;72.18;101361.38;1776352;79;25960;-65
2021/10/19 09:57:20;;;;;;;26.12;13.00;;;;;;;13.72;72.16;101360.64;1771074;79;26925;-66
2021/10/19 09:59:47;;;;;;;24.63;11.68;;;;;;;13.77;71.97;101357.27;1765584;79;26317;-66
2021/10/19 10:02:15;;;;;;;29.10;14.58;;;;;;;13.86;72.02;101351.93;1759232;79;26061;-65
2021/10/19 10:04:42;;;;;;;30.32;13.20;;;;;;;13.98;71.96;101348.20;1760137;79;25777;-65
2021/10/19 10:07:11;;;;;;;27.10;13.48;;;;;;;14.09;71.85;101343.66;1768203;79;25718;-65
2021/10/19 10:09:43;;;;;;;24.55;11.88;;;;;;;14.20;71.67;101344.03;1756573;79;27386;-65
2021/10/19 10:12:09;;;;;;;22.20;11.88;;;;;;;14.28;71.34;101334.23;1758628;79;26613;-63
2021/10/19 10:14:48;;;;;;;20.52;10.95;;;;;;;14.33;70.99;101336.23;1768628;79;25678;-63
2021/10/19 10:17:15;;;;;;;22.37;12.07;;;;;;;14.37;70.99;101330.22;1758310;79;25797;-63
2021/10/19 10:19:43;;;;;;;22.80;11.78;;;;;;;14.41;70.87;101331.34;1733446;81;25802;-62
2021/10/19 10:22:30;;;;;;;22.32;11.60;;;;;;;14.51;70.88;101335.37;1758968;79;27713;-62
2021/10/19 10:25:15;;;;;;;22.82;11.33;;;;;;;14.55;70.52;101336.10;1746851;80;25912;-62
2021/10/19 10:27:43;;;;;;;26.00;12.70;;;;;;;14.63;70.57;101330.33;1755654;79;25968;-62
2021/10/19 10:30:20;;;;;;;23.20;11.08;;;;;;;14.71;70.29;101321.38;1734097;81;25870;-63
2021/10/19 10:32:46;;;;;;;21.87;11.18;;;;;;;14.74;70.27;101307.27;1753092;80;25763;-62
2021/10/19 10:35:19;;;;;;;31.62;12.33;;;;;;;14.81;70.26;101303.78;1751908;80;27373;-62
2021/10/19 10:37:56;;;;;;;22.87;11.00;;;;;;;14.91;69.96;101301.02;1758781;79;25771;-62
2021/10/19 10:40:38;;;;;;;24.10;10.85;;;;;;;15.01;69.81;101307.69;1758036;79;25765;-64
2021/10/19 10:43:26;;;;;;;16.40;10.03;;;;;;;15.14;69.08;101300.70;1756853;79;26339;-62
2021/10/19 10:46:19;;;;;;;23.15;11.25;;;;;;;15.20;69.25;101286.89;1757528;79;26062;-63
2021/10/19 10:48:44;;;;;;;18.50;9.18;;;;;;;15.32;69.13;101285.84;1755901;79;27492;-62
2021/10/19 10:51:13;;;;;;;16.00;8.40;;;;;;;15.38;68.71;101272.02;1752188;79;25824;-63
2021/10/19 10:53:43;;;;;;;18.00;9.38;;;;;;;15.36;68.42;101259.94;1716268;81;25804;-62
2021/10/19 10:56:12;;;;;;;19.98;9.55;;;;;;;15.37;68.24;101265.73;1725980;81;25745;-62
2021/10/19 10:58:41;;;;;;;21.30;9.33;;;;;;;15.46;67.77;101258.97;1736738;81;25687;-63
2021/10/19 11:01:22;;;;;;;17.55;8.25;;;;;;;15.54;67.64;101262.13;1735525;81;28136;-63
2021/10/19 11:03:55;;;;;;;23.10;9.13;;;;;;;15.64;67.66;101265.20;1756558;79;25816;-64
2021/10/19 11:06:25;;;;;;;28.42;8.58;;;;;;;15.76;67.45;101255.95;1757068;79;25784;-63
2021/10/19 11:09:00;;;;;;;13.60;8.03;;;;;;;15.84;66.54;101264.98;1754939;79;25986;-64
2021/10/19 11:11:28;;;;;;;12.73;7.95;;;;;;;15.89;66.38;101261.07;1758677;79;25728;-63
2021/10/19 11:13:58;;;;;;;18.82;7.47;;;;;;;16.07;65.78;101262.35;1657900;83;26763;-62
2021/10/19 11:16:42;;;;;;;12.75;7.30;;;;;;;16.26;65.30;101270.30;1756146;81;27101;-62